createdAt,value
2018-06-17T00:02:11.968Z,44.00
2018-06-17T00:04:39.777Z,44.10
2018-06-17T00:07:07.379Z,44.00
2018-06-17T00:09:34.923Z,44.00
2018-06-17T00:12:02.528Z,43.90
2018-06-17T00:14:30.097Z,44.00
2018-06-17T00:16:57.700Z,44.00
2018-06-17T00:19:25.408Z,44.10
2018-06-17T00:21:53.030Z,44.20
2018-06-17T00:24:20.648Z,44.30
2018-06-17T00:26:48.210Z,44.30
2018-06-17T00:29:15.803Z,44.50
2018-06-17T00:31:43.420Z,44.50
2018-06-17T00:34:11.021Z,44.50
2018-06-17T00:36:38.690Z,44.50
2018-06-17T00:39:08.685Z,44.50
2018-06-17T00:41:36.236Z,44.50
2018-06-17T00:44:03.828Z,44.50
2018-06-17T00:46:31.383Z,44.60
2018-06-17T00:48:58.951Z,44.70
2018-06-17T00:51:26.496Z,44.70
2018-06-17T00:53:54.060Z,44.70
2018-06-17T00:56:21.628Z,44.60
2018-06-17T00:58:49.178Z,44.50
2018-06-17T01:03:44.392Z,44.60
2018-06-17T01:06:12.485Z,44.60
2018-06-17T01:08:40.049Z,44.70
2018-06-17T01:13:35.317Z,44.90
2018-06-17T01:16:02.922Z,45.00
2018-06-17T01:18:30.472Z,45.10
2018-06-17T01:20:58.108Z,45.20
2018-06-17T01:23:25.731Z,45.20
2018-06-17T01:25:53.295Z,45.30
2018-06-17T01:28:20.925Z,45.40
2018-06-17T01:33:16.252Z,45.60
2018-06-17T01:35:43.799Z,45.60
2018-06-17T01:38:11.441Z,45.80
2018-06-17T01:40:39.000Z,45.90
2018-06-17T01:43:06.759Z,46.00
2018-06-17T01:45:34.321Z,46.10
2018-06-17T01:48:01.900Z,46.20
2018-06-17T01:50:29.498Z,46.90
2018-06-17T01:52:57.077Z,46.40
2018-06-17T01:55:24.765Z,46.50
2018-06-17T01:57:52.351Z,46.70
2018-06-17T02:00:19.956Z,46.70
2018-06-17T02:02:47.521Z,46.80
2018-06-17T02:05:20.888Z,47.00
2018-06-17T02:07:54.277Z,47.00
2018-06-17T02:10:27.888Z,47.20
2018-06-17T02:12:55.937Z,47.20
2018-06-17T02:17:51.145Z,47.50
2018-06-17T02:20:18.709Z,47.60
2018-06-17T02:22:46.302Z,47.80
2018-06-17T02:25:13.872Z,47.80
2018-06-17T02:27:41.437Z,47.80
2018-06-17T02:30:09.000Z,47.90
2018-06-17T02:32:36.605Z,48.00
2018-06-17T02:35:04.262Z,48.10
2018-06-17T02:37:31.848Z,48.20
2018-06-17T02:39:59.407Z,48.30
2018-06-17T02:42:27.013Z,48.30
2018-06-17T02:45:00.336Z,48.40
2018-06-17T02:47:33.845Z,48.50
2018-06-17T02:50:07.265Z,48.60
2018-06-17T02:52:40.752Z,48.70
2018-06-17T02:57:36.883Z,48.90
2018-06-17T03:00:04.505Z,49.00
2018-06-17T03:02:32.113Z,49.10
2018-06-17T03:04:59.733Z,49.10
2018-06-17T03:07:27.325Z,49.20
2018-06-17T03:09:54.920Z,49.20
2018-06-17T03:12:22.546Z,49.30
2018-06-17T03:14:50.152Z,49.30
2018-06-17T03:19:45.332Z,49.30
2018-06-17T03:22:12.885Z,49.30
2018-06-17T03:24:46.212Z,49.30
2018-06-17T03:27:19.665Z,49.40
2018-06-17T03:29:53.037Z,49.50
2018-06-17T03:32:26.568Z,49.50
2018-06-17T03:35:00.062Z,49.50
2018-06-17T03:37:27.620Z,49.60
2018-06-17T03:39:55.209Z,49.60
2018-06-17T03:42:22.762Z,49.60
2018-06-17T03:44:50.385Z,49.70
2018-06-17T03:47:17.940Z,49.70
2018-06-17T03:49:45.588Z,49.70
2018-06-17T03:52:13.164Z,49.70
2018-06-17T03:54:40.741Z,49.70
2018-06-17T03:57:08.364Z,49.70
2018-06-17T03:59:35.937Z,49.70
2018-06-17T04:02:03.581Z,49.80
2018-06-17T04:04:35.769Z,49.80
2018-06-17T04:07:03.418Z,49.90
2018-06-17T04:09:30.996Z,49.90
2018-06-17T04:11:58.553Z,49.90
2018-06-17T04:16:53.866Z,49.90
2018-06-17T04:19:21.496Z,49.90
2018-06-17T04:21:49.141Z,49.90
2018-06-17T04:24:16.704Z,49.80
2018-06-17T04:26:44.303Z,49.80
2018-06-17T04:29:11.850Z,49.70
2018-06-17T04:31:39.406Z,49.70
2018-06-17T04:34:06.968Z,49.70
2018-06-17T04:36:34.568Z,49.80
2018-06-17T04:41:32.653Z,50.00
2018-06-17T04:44:00.193Z,49.70
2018-06-17T04:46:27.769Z,49.70
2018-06-17T04:48:55.410Z,49.80
2018-06-17T04:51:22.992Z,49.60
2018-06-17T04:53:50.581Z,49.50
2018-06-17T04:56:18.156Z,49.30
2018-06-17T04:58:45.784Z,49.20
2018-06-17T05:01:13.581Z,49.20
2018-06-17T05:03:41.168Z,49.20
2018-06-17T05:06:08.743Z,49.80
2018-06-17T05:08:36.316Z,49.20
2018-06-17T05:11:04.136Z,49.20
2018-06-17T05:13:31.841Z,49.10
2018-06-17T05:15:59.505Z,49.10
2018-06-17T05:18:27.093Z,49.00
2018-06-17T05:20:54.673Z,49.00
2018-06-17T05:23:22.340Z,49.00
2018-06-17T05:25:50.073Z,48.90
2018-06-17T05:28:17.671Z,48.90
2018-06-17T05:33:13.573Z,48.90
2018-06-17T05:35:42.524Z,48.80
2018-06-17T05:38:10.166Z,48.80
2018-06-17T05:40:38.010Z,48.80
2018-06-17T05:45:34.598Z,48.80
2018-06-17T05:48:02.325Z,48.70
2018-06-17T05:50:30.040Z,48.70
2018-06-17T05:52:57.752Z,48.70
2018-06-17T05:55:25.639Z,48.60
2018-06-17T05:57:53.284Z,48.60
2018-06-17T06:00:20.994Z,48.60
2018-06-17T06:02:48.622Z,48.60
2018-06-17T06:05:16.268Z,48.60
2018-06-17T06:07:43.977Z,48.60
2018-06-17T06:10:11.660Z,48.60
2018-06-17T06:12:39.262Z,48.70
2018-06-17T06:15:06.882Z,49.10
2018-06-17T06:17:34.481Z,49.50
2018-06-17T06:20:02.096Z,49.60
2018-06-17T06:22:29.736Z,49.70
2018-06-17T06:24:57.342Z,49.60
2018-06-17T06:27:25.009Z,49.20
2018-06-17T06:29:52.645Z,48.80
2018-06-17T06:32:20.228Z,48.40
2018-06-17T06:34:47.861Z,48.30
2018-06-17T06:37:15.452Z,48.10
2018-06-17T06:39:43.010Z,47.90
2018-06-17T06:42:10.601Z,47.20
2018-06-17T06:44:38.224Z,46.60
2018-06-17T06:47:05.861Z,45.80
2018-06-17T06:49:33.520Z,45.00
2018-06-17T06:52:01.075Z,44.40
2018-06-17T06:54:28.672Z,43.90
2018-06-17T06:56:56.589Z,43.30
2018-06-17T06:59:24.233Z,42.80
2018-06-17T07:04:48.772Z,42.40
2018-06-17T07:07:34.165Z,42.10
2018-06-17T07:10:19.441Z,41.60
2018-06-17T07:12:47.037Z,41.20
2018-06-17T07:15:14.592Z,40.50
2018-06-17T07:17:59.563Z,40.70
2018-06-17T07:20:27.162Z,40.60
2018-06-17T07:22:54.708Z,40.40
2018-06-17T07:27:39.513Z,40.30
2018-06-17T07:30:07.054Z,40.40
2018-06-17T07:32:34.645Z,40.80
2018-06-17T07:35:02.159Z,40.10
2018-06-17T07:37:29.729Z,39.20
2018-06-17T07:40:26.222Z,38.60
2018-06-17T07:42:53.772Z,38.00
2018-06-17T07:45:21.348Z,37.70
2018-06-17T07:47:48.885Z,37.00
2018-06-17T07:50:34.157Z,36.20
2018-06-17T07:53:15.255Z,35.60
2018-06-17T07:55:42.812Z,34.90
2018-06-17T07:58:10.514Z,34.40
2018-06-17T08:00:38.282Z,33.80
2018-06-17T08:03:05.805Z,33.80
2018-06-17T08:05:33.315Z,32.60
2018-06-17T08:08:00.817Z,32.00
2018-06-17T08:10:28.402Z,31.20
2018-06-17T08:12:55.892Z,30.50
2018-06-17T08:15:23.945Z,30.00
2018-06-17T08:17:52.881Z,29.70
2018-06-17T08:20:20.556Z,29.20
2018-06-17T08:22:51.688Z,29.00
2018-06-17T08:25:19.746Z,28.40
2018-06-17T08:27:49.625Z,28.10
2018-06-17T08:30:17.890Z,27.70
2018-06-17T08:32:46.180Z,27.50
2018-06-17T08:35:14.371Z,27.10
2018-06-17T08:37:41.920Z,26.80
2018-06-17T08:40:20.116Z,26.50
2018-06-17T08:42:48.677Z,26.30
2018-06-17T08:45:16.747Z,26.10
2018-06-17T08:47:44.335Z,25.80
2018-06-17T08:50:11.860Z,25.60
2018-06-17T08:55:07.305Z,25.00
2018-06-17T08:57:34.912Z,24.70
2018-06-17T09:00:02.795Z,24.30
2018-06-17T09:02:30.405Z,23.70
2018-06-17T09:04:57.993Z,23.50
2018-06-17T09:07:25.982Z,23.50
2018-06-17T09:09:54.141Z,23.40
2018-06-17T09:12:21.827Z,23.40
2018-06-17T09:14:49.685Z,23.10
2018-06-17T09:17:17.684Z,22.70
2018-06-17T09:19:45.672Z,22.20
2018-06-17T09:22:13.448Z,21.90
2018-06-17T09:24:41.017Z,22.10
2018-06-17T09:27:08.582Z,22.20
2018-06-17T09:29:36.265Z,22.20
2018-06-17T09:32:05.986Z,22.30
2018-06-17T09:34:33.445Z,22.30
2018-06-17T09:37:01.396Z,22.30
2018-06-17T09:39:29.007Z,22.20
2018-06-17T09:41:56.596Z,21.90
2018-06-17T09:44:24.216Z,21.70
2018-06-17T09:46:51.794Z,21.70
2018-06-17T09:49:19.376Z,21.60
2018-06-17T09:51:47.067Z,21.40
2018-06-17T09:54:14.657Z,21.20
2018-06-17T09:56:42.289Z,20.80
2018-06-17T09:59:09.897Z,20.60
2018-06-17T10:01:37.681Z,20.40
2018-06-17T10:04:05.438Z,20.30
2018-06-17T10:06:33.101Z,20.30
2018-06-17T10:09:00.683Z,20.30
2018-06-17T10:11:28.599Z,20.30
2018-06-17T10:13:56.685Z,20.40
2018-06-17T10:16:24.681Z,20.60
2018-06-17T10:18:52.459Z,20.70
2018-06-17T10:21:20.147Z,21.00
2018-06-17T10:23:47.945Z,21.30
2018-06-17T10:26:15.576Z,21.60
2018-06-17T10:28:43.142Z,21.90
2018-06-17T10:31:10.720Z,22.20
2018-06-17T10:33:38.446Z,22.70
2018-06-17T10:36:06.041Z,23.00
2018-06-17T10:38:33.623Z,23.50
2018-06-17T10:41:01.193Z,24.00
2018-06-17T10:43:29.783Z,24.30
2018-06-17T10:45:57.389Z,24.40
2018-06-17T10:48:24.957Z,24.30
2018-06-17T10:50:52.570Z,24.20
2018-06-17T10:53:20.173Z,23.90
2018-06-17T10:55:47.824Z,23.80
2018-06-17T10:58:15.368Z,23.50
2018-06-17T11:00:42.953Z,23.00
2018-06-17T11:03:10.553Z,22.50
2018-06-17T11:05:38.212Z,22.20
2018-06-17T11:08:05.776Z,22.10
2018-06-17T11:10:33.461Z,22.10
2018-06-17T11:13:01.094Z,22.10
2018-06-17T11:15:28.613Z,22.10
2018-06-17T11:17:56.232Z,22.30
2018-06-17T11:20:23.801Z,22.60
2018-06-17T11:22:51.421Z,22.70
2018-06-17T11:25:19.028Z,22.70
2018-06-17T11:27:46.596Z,22.90
2018-06-17T11:30:14.186Z,22.70
2018-06-17T11:32:41.776Z,22.90
2018-06-17T11:35:09.881Z,23.50
2018-06-17T11:37:37.503Z,23.70
2018-06-17T11:40:05.125Z,23.50
2018-06-17T11:42:32.688Z,23.90
2018-06-17T11:45:01.298Z,23.80
2018-06-17T11:47:28.979Z,23.70
2018-06-17T11:49:56.578Z,23.70
2018-06-17T11:52:24.182Z,23.70
2018-06-17T11:54:52.253Z,23.40
2018-06-17T11:57:20.316Z,23.00
2018-06-17T11:59:48.660Z,22.80
2018-06-17T12:02:17.825Z,22.60
2018-06-17T12:04:45.685Z,22.60
2018-06-17T12:07:14.400Z,22.70
2018-06-17T12:09:42.171Z,22.80
2018-06-17T12:12:09.813Z,22.70
2018-06-17T12:14:37.550Z,22.70
2018-06-17T12:17:05.253Z,22.90
2018-06-17T12:19:33.017Z,22.80
2018-06-17T12:22:00.895Z,23.00
2018-06-17T12:24:28.569Z,23.30
2018-06-17T12:26:56.217Z,23.30
2018-06-17T12:29:23.898Z,23.40
2018-06-17T12:31:51.495Z,23.50
2018-06-17T12:34:19.092Z,23.50
2018-06-17T12:36:46.737Z,23.50
2018-06-17T12:39:14.851Z,23.60
2018-06-17T12:41:43.183Z,23.80
2018-06-17T12:44:11.063Z,23.80
2018-06-17T12:46:39.337Z,24.00
2018-06-17T12:49:07.948Z,24.10
2018-06-17T12:51:35.781Z,24.20
2018-06-17T12:54:03.641Z,24.40
2018-06-17T12:56:32.142Z,24.50
2018-06-17T12:58:59.842Z,24.50
2018-06-17T13:01:29.157Z,24.20
2018-06-17T13:03:58.093Z,24.10
2018-06-17T13:06:26.180Z,24.00
2018-06-17T13:08:54.707Z,24.00
2018-06-17T13:11:22.885Z,24.00
2018-06-17T13:13:51.444Z,24.00
2018-06-17T13:18:46.926Z,23.90
2018-06-17T13:21:14.508Z,23.90
2018-06-17T13:23:42.085Z,24.10
2018-06-17T13:26:09.669Z,24.20
2018-06-17T13:28:37.337Z,24.40
2018-06-17T13:31:06.485Z,24.70
2018-06-17T13:33:34.920Z,25.10
2018-06-17T13:38:30.449Z,25.80
2018-06-17T13:40:58.138Z,26.50
2018-06-17T13:43:25.701Z,26.90
2018-06-17T13:45:53.309Z,27.50
2018-06-17T13:48:20.943Z,28.20
2018-06-17T13:50:48.558Z,28.60
2018-06-17T13:53:16.206Z,28.80
2018-06-17T13:55:43.775Z,29.20
2018-06-17T13:58:11.399Z,29.60
2018-06-17T14:00:38.953Z,30.00
2018-06-17T14:03:06.521Z,30.30
2018-06-17T14:08:02.431Z,31.00
2018-06-17T14:10:30.028Z,31.40
2018-06-17T14:12:57.708Z,31.60
2018-06-17T14:15:26.787Z,31.90
2018-06-17T14:17:54.814Z,32.10
2018-06-17T14:20:22.432Z,32.10
2018-06-17T14:22:50.339Z,32.40
2018-06-17T14:25:17.943Z,32.80
2018-06-17T14:27:45.586Z,33.30
2018-06-17T14:30:13.354Z,34.00
2018-06-17T14:32:40.978Z,34.70
2018-06-17T14:35:08.586Z,35.40
2018-06-17T14:37:36.173Z,36.20
2018-06-17T14:40:03.849Z,37.00
2018-06-17T14:42:37.234Z,37.30
2018-06-17T14:45:10.697Z,38.00
2018-06-17T14:47:43.936Z,38.10
2018-06-17T14:50:17.243Z,38.40
2018-06-17T14:52:50.744Z,38.50
2018-06-17T14:55:18.371Z,38.90
2018-06-17T14:57:46.089Z,39.20
2018-06-17T15:00:13.734Z,39.60
2018-06-17T15:02:41.433Z,39.80
2018-06-17T15:05:09.085Z,40.20
2018-06-17T15:07:36.936Z,40.50
2018-06-17T15:10:04.672Z,40.80
2018-06-17T15:12:32.284Z,41.00
2018-06-17T15:15:00.004Z,41.20
2018-06-17T15:17:27.610Z,41.50
2018-06-17T15:19:55.270Z,41.50
2018-06-17T15:22:23.235Z,41.50
2018-06-17T15:24:50.852Z,41.70
2018-06-17T15:27:18.454Z,41.80
2018-06-17T15:29:46.143Z,42.00
2018-06-17T15:32:19.550Z,42.30
2018-06-17T15:34:52.870Z,42.40
2018-06-17T15:37:26.152Z,42.70
2018-06-17T15:39:55.467Z,43.30
2018-06-17T15:42:23.141Z,43.50
2018-06-17T15:44:50.792Z,44.00
2018-06-17T15:47:18.757Z,43.90
2018-06-17T15:49:46.468Z,43.70
2018-06-17T15:52:14.127Z,43.50
2018-06-17T15:54:41.741Z,43.70
2018-06-17T15:57:09.418Z,43.80
2018-06-17T15:59:37.072Z,43.90
2018-06-17T16:02:04.752Z,44.00
2018-06-17T16:04:32.372Z,44.10
2018-06-17T16:07:00.096Z,44.00
2018-06-17T16:09:27.720Z,44.20
2018-06-17T16:12:01.027Z,44.30
2018-06-17T16:14:34.586Z,44.40
2018-06-17T16:17:07.903Z,44.50
2018-06-17T16:19:41.310Z,44.60
2018-06-17T16:22:08.925Z,44.70
2018-06-17T16:24:36.557Z,44.80
2018-06-17T16:27:04.229Z,45.10
2018-06-17T16:29:38.610Z,45.20
2018-06-17T16:32:07.204Z,45.50
2018-06-17T16:34:34.828Z,45.60
2018-06-17T16:37:02.503Z,45.80
2018-06-17T16:39:30.131Z,45.90
2018-06-17T16:41:57.777Z,46.00
2018-06-17T16:44:25.468Z,46.10
2018-06-17T16:46:53.105Z,46.20
2018-06-17T16:49:20.676Z,46.30
2018-06-17T16:51:54.127Z,46.30
2018-06-17T16:55:27.148Z,46.20
2018-06-17T16:58:00.440Z,45.80
2018-06-17T17:00:28.346Z,45.20
2018-06-17T17:02:56.361Z,44.90
2018-06-17T17:05:24.048Z,44.70
2018-06-17T17:07:51.669Z,44.50
2018-06-17T17:10:19.438Z,44.30
2018-06-17T17:12:47.054Z,44.10
2018-06-17T17:15:14.697Z,44.00
2018-06-17T17:20:10.132Z,43.80
2018-06-17T17:25:05.459Z,43.00
2018-06-17T17:27:33.033Z,42.90
2018-06-17T17:30:00.645Z,43.50
2018-06-17T17:32:35.237Z,42.70
2018-06-17T17:35:08.756Z,42.60
2018-06-17T17:37:42.077Z,42.50
2018-06-17T17:40:15.502Z,42.60
2018-06-17T17:42:43.212Z,42.70
2018-06-17T17:45:15.433Z,42.80
2018-06-17T17:47:43.185Z,42.90
2018-06-17T17:52:38.635Z,43.20
2018-06-17T17:55:06.848Z,43.30
2018-06-17T17:57:34.737Z,43.50
2018-06-17T18:00:02.614Z,43.70
2018-06-17T18:02:31.260Z,43.80
2018-06-17T18:04:59.004Z,43.90
2018-06-17T18:07:27.433Z,44.00
2018-06-17T18:09:55.301Z,44.10
2018-06-17T18:12:23.587Z,44.20
2018-06-17T18:14:51.321Z,44.20
2018-06-17T18:17:19.005Z,44.40
2018-06-17T18:19:47.605Z,44.60
2018-06-17T18:22:15.329Z,44.70
2018-06-17T18:24:47.791Z,45.30
2018-06-17T18:27:21.300Z,44.90
2018-06-17T18:29:54.786Z,44.90
2018-06-17T18:32:28.507Z,44.90
2018-06-17T18:35:02.468Z,45.00
2018-06-17T18:37:30.272Z,44.90
2018-06-17T18:39:58.633Z,45.00
2018-06-17T18:42:26.442Z,45.00
2018-06-17T18:44:54.962Z,45.00
2018-06-17T18:47:22.865Z,44.90
2018-06-17T18:49:50.896Z,44.90
2018-06-17T18:52:18.548Z,44.80
2018-06-17T18:54:46.182Z,44.70
2018-06-17T18:57:13.975Z,44.70
2018-06-17T18:59:41.714Z,44.70
2018-06-17T19:02:09.753Z,44.70
2018-06-17T19:04:37.468Z,44.70
2018-06-17T19:07:05.137Z,44.80
2018-06-17T19:09:38.440Z,45.00
2018-06-17T19:12:11.993Z,45.00
2018-06-17T19:14:45.438Z,45.00
2018-06-17T19:17:19.043Z,45.00
2018-06-17T19:19:46.692Z,45.00
2018-06-17T19:22:14.315Z,45.10
2018-06-17T19:24:41.974Z,45.20
2018-06-17T19:27:10.564Z,45.40
2018-06-17T19:29:38.318Z,45.50
2018-06-17T19:32:06.293Z,45.50
2018-06-17T19:34:34.725Z,45.60
2018-06-17T19:37:03.700Z,45.70
2018-06-17T19:39:32.140Z,45.80
2018-06-17T19:41:59.993Z,45.90
2018-06-17T19:44:28.283Z,46.00
2018-06-17T19:46:56.952Z,46.00
2018-06-17T19:49:30.246Z,46.10
2018-06-17T19:52:04.361Z,46.20
2018-06-17T19:54:38.101Z,46.40
2018-06-17T19:57:11.681Z,46.50
2018-06-17T19:59:45.972Z,46.60
2018-06-17T20:02:13.867Z,46.70
2018-06-17T20:04:42.434Z,46.80
2018-06-17T20:07:10.597Z,46.90
2018-06-17T20:09:39.017Z,47.00
2018-06-17T20:12:06.843Z,47.20
2018-06-17T20:14:35.022Z,47.30
2018-06-17T20:17:03.062Z,47.30
2018-06-17T20:19:31.793Z,47.50
2018-06-17T20:21:59.808Z,47.50
2018-06-17T20:24:28.359Z,47.60
2018-06-17T20:26:56.080Z,47.70
2018-06-17T20:29:24.110Z,47.70
2018-06-17T20:31:57.527Z,47.90
2018-06-17T20:37:06.375Z,48.00
2018-06-17T20:39:39.851Z,48.00
2018-06-17T20:42:13.371Z,48.10
2018-06-17T20:44:41.504Z,48.10
2018-06-17T20:47:11.402Z,48.10
2018-06-17T20:49:40.518Z,48.20
2018-06-17T20:52:08.436Z,48.30
2018-06-17T20:54:38.416Z,48.30
2018-06-17T20:57:06.943Z,48.40
2018-06-17T20:59:35.392Z,48.40
2018-06-17T21:02:03.312Z,48.60
2018-06-17T21:04:31.617Z,48.60
2018-06-17T21:06:59.921Z,48.80
2018-06-17T21:09:27.623Z,48.80
2018-06-17T21:11:56.817Z,48.80
2018-06-17T21:14:25.509Z,48.90
2018-06-17T21:16:54.853Z,48.90
2018-06-17T21:19:28.956Z,49.00
2018-06-17T21:22:03.563Z,49.10
2018-06-17T21:24:37.824Z,49.10
2018-06-17T21:27:12.083Z,49.20
2018-06-17T21:29:39.930Z,49.20
2018-06-17T21:32:07.720Z,49.30
2018-06-17T21:34:35.281Z,49.30
2018-06-17T21:37:02.921Z,49.40
2018-06-17T21:39:30.456Z,50.00
2018-06-17T21:41:58.066Z,49.50
2018-06-17T21:44:25.686Z,49.60
2018-06-17T21:46:53.327Z,49.50
2018-06-17T21:49:22.298Z,49.60
2018-06-17T21:51:49.993Z,49.60
2018-06-17T21:56:45.310Z,49.60
2018-06-17T21:59:13.225Z,49.70
2018-06-17T22:01:41.916Z,49.70
2018-06-17T22:04:15.270Z,49.60
2018-06-17T22:06:42.939Z,49.50
2018-06-17T22:09:16.389Z,49.50
2018-06-17T22:11:49.871Z,49.50
2018-06-17T22:14:23.199Z,49.50
2018-06-17T22:16:56.761Z,49.50
2018-06-17T22:19:24.336Z,49.50
2018-06-17T22:21:51.916Z,49.40
2018-06-17T22:24:19.532Z,49.50
2018-06-17T22:26:47.225Z,49.30
2018-06-17T22:29:14.897Z,49.30
2018-06-17T22:31:42.528Z,49.20
2018-06-17T22:34:10.156Z,49.00
2018-06-17T22:36:37.860Z,49.00
2018-06-17T22:39:07.482Z,49.00
2018-06-17T22:41:35.060Z,48.90
2018-06-17T22:44:02.689Z,48.80
2018-06-17T22:46:30.332Z,48.70
2018-06-17T22:48:57.940Z,48.60
2018-06-17T22:51:25.617Z,48.50
2018-06-17T22:54:10.921Z,48.40
2018-06-17T22:56:44.232Z,48.30
2018-06-17T22:59:17.621Z,48.20
2018-06-17T23:01:51.418Z,48.10
2018-06-17T23:04:24.809Z,48.00
2018-06-17T23:07:59.753Z,47.90
2018-06-17T23:10:27.373Z,47.80
2018-06-17T23:12:54.959Z,47.50
2018-06-17T23:15:22.559Z,47.50
2018-06-17T23:17:50.165Z,47.40
2018-06-17T23:20:17.790Z,47.40
2018-06-17T23:22:45.394Z,47.30
2018-06-17T23:25:12.993Z,47.20
2018-06-17T23:27:40.565Z,47.10
2018-06-17T23:30:08.138Z,47.10
2018-06-17T23:32:35.734Z,47.10
2018-06-17T23:35:03.347Z,47.00
2018-06-17T23:42:26.237Z,46.90
2018-06-17T23:44:53.850Z,46.80
2018-06-17T23:47:27.299Z,46.80
2018-06-17T23:50:00.653Z,46.80
2018-06-17T23:52:34.053Z,46.70
2018-06-17T23:55:07.484Z,46.70
2018-06-17T23:57:35.110Z,46.60
